Kirkburton, United Kingdom
Current Conditions -  °F | °C
As of 1:20 PM on Thursday 18 Dec 2014 (Local Time) from EGNM Reporting Station
Light Rain Light Rain  
Wind Chill: 54°   Ceiling: 800
Heat Index: 54°   Visibility: 4mi
Dew Point: 50°   Wind: 23mph
Humidity: 88%   Direction: 250°WSW
Pressure: 29.47"   Gusts: 41mph
Location:  53.61°N, 1.7°W
Report Text: EGNM 181320Z 25020G36KT 220V280 6000 -RA SCT006 BKN008 12/10 Q0998
Loading
Personal Weather Stations






























Interactive Weather Map New forecast layout! Learn more

10-Day Weather Forecast

Advertisements
Track Severe Weather on mobile